Time;durP1;ratioP1;P1;durP2;ratioP2;P2;SDS_P1;SDS_P2;PMS_P1;PMS_P2;Temp;Humidity;BMP_temperature;BMP_pressure;BME280_temperature;BME280_humidity;BME280_pressure;Samples;Min_cycle;Max_cycle;Signal;HPM_P1;HPM_P2
2023/07/07 00:00:07;;;;;;;3.40;3.20;;;;;;;;;;5030026;28;20482;-70
2023/07/07 00:02:33;;;;;;;6.20;3.43;;;;;;;;;;5029016;28;20935;-71
2023/07/07 00:04:59;;;;;;;6.67;5.87;;;;;;;;;;5029864;28;20423;-71
2023/07/07 00:07:25;;;;;;;3.60;3.30;;;;;;;;;;5030461;28;20439;-71
2023/07/07 00:09:51;;;;;;;2.87;2.77;;;;;;;;;;5044366;28;20486;-71
2023/07/07 00:12:17;;;;;;;3.20;2.97;;;;;;;;;;5029643;28;20477;-70
2023/07/07 00:14:44;;;;;;;3.13;3.00;;;;;;;;;;5029467;28;20435;-70
2023/07/07 00:17:11;;;;;;;4.87;3.10;;;;;;;;;;5028587;28;20432;-71
2023/07/07 00:19:37;;;;;;;3.13;2.70;;;;;;;;;;5028979;28;20487;-71
2023/07/07 00:22:05;;;;;;;2.90;2.80;;;;;;;;;;5045119;28;20866;-71
2023/07/07 00:24:32;;;;;;;2.90;2.83;;;;;;;;;;5027526;28;20443;-71
2023/07/07 00:26:58;;;;;;;2.80;2.70;;;;;;;;;;5029476;28;20504;-70
2023/07/07 00:29:24;;;;;;;3.13;2.80;;;;;;;;;;5029435;28;20439;-70
2023/07/07 00:31:50;;;;;;;2.73;2.63;;;;;;;;;;5028514;28;20430;-71
2023/07/07 00:34:16;;;;;;;2.60;2.60;;;;;;;;;;5029248;28;20438;-71
2023/07/07 00:36:42;;;;;;;3.67;3.47;;;;;;;;;;5029296;28;20461;-70
2023/07/07 00:39:08;;;;;;;3.40;3.20;;;;;;;;;;5028608;28;20439;-70
2023/07/07 00:41:34;;;;;;;5.07;2.77;;;;;;;;;;5028665;28;20450;-71
2023/07/07 00:44:04;;;;;;;5.43;2.93;;;;;;;;;;5027766;28;20427;-70
2023/07/07 00:46:30;;;;;;;3.60;3.30;;;;;;;;;;5027714;28;20450;-70
2023/07/07 00:48:57;;;;;;;3.30;3.17;;;;;;;;;;5028733;28;20459;-70
2023/07/07 00:51:29;;;;;;;9.17;2.70;;;;;;;;;;5028010;28;20443;-70
2023/07/07 00:53:56;;;;;;;3.33;3.13;;;;;;;;;;5028076;28;20493;-71
2023/07/07 00:56:26;;;;;;;3.90;2.87;;;;;;;;;;5029079;28;20808;-71
2023/07/07 00:58:52;;;;;;;2.80;2.70;;;;;;;;;;5028201;28;20473;-70
2023/07/07 01:01:18;;;;;;;3.47;3.33;;;;;;;;;;5028407;28;20490;-71
2023/07/07 01:03:48;;;;;;;2.63;2.50;;;;;;;;;;5029552;28;20423;-71
2023/07/07 01:06:15;;;;;;;3.00;2.90;;;;;;;;;;5028331;28;20847;-71
2023/07/07 01:08:43;;;;;;;2.70;2.57;;;;;;;;;;5028081;28;20450;-71
2023/07/07 01:11:09;;;;;;;3.43;3.23;;;;;;;;;;5028770;28;20451;-70
2023/07/07 01:13:35;;;;;;;3.20;3.00;;;;;;;;;;5027996;28;20454;-71
2023/07/07 01:16:13;;;;;;;8.53;3.03;;;;;;;;;;5029550;28;20443;-71
2023/07/07 01:18:55;;;;;;;3.03;2.73;;;;;;;;;;5029487;28;20423;-71
2023/07/07 01:21:21;;;;;;;3.03;2.80;;;;;;;;;;5028165;28;20490;-70
2023/07/07 01:23:57;;;;;;;3.37;3.03;;;;;;;;;;5042080;28;20450;-70
2023/07/07 01:26:42;;;;;;;3.13;3.03;;;;;;;;;;5028204;28;20207;-72
2023/07/07 01:29:18;;;;;;;3.10;3.00;;;;;;;;;;5030486;28;20442;-70
2023/07/07 01:31:47;;;;;;;2.43;2.33;;;;;;;;;;5032705;28;20792;-71
2023/07/07 01:34:14;;;;;;;2.97;2.87;;;;;;;;;;5030517;28;20449;-70
2023/07/07 01:36:40;;;;;;;3.73;3.50;;;;;;;;;;5032729;28;20828;-70
2023/07/07 01:39:07;;;;;;;2.90;2.77;;;;;;;;;;5032206;28;20443;-71
2023/07/07 01:41:42;;;;;;;3.37;3.23;;;;;;;;;;5031550;28;20482;-71
2023/07/07 01:44:10;;;;;;;3.43;3.23;;;;;;;;;;5031472;28;20647;-70
2023/07/07 01:46:44;;;;;;;5.23;3.53;;;;;;;;;;5032587;28;20843;-71
2023/07/07 01:49:16;;;;;;;3.10;3.00;;;;;;;;;;5032118;28;20483;-71
2023/07/07 01:52:03;;;;;;;2.57;2.43;;;;;;;;;;5031488;28;20431;-71
2023/07/07 01:54:30;;;;;;;4.40;3.60;;;;;;;;;;5031883;28;20434;-70
2023/07/07 01:56:57;;;;;;;2.70;2.60;;;;;;;;;;5032042;28;20431;-70
2023/07/07 01:59:23;;;;;;;2.30;2.30;;;;;;;;;;5031242;28;20475;-70
2023/07/07 02:01:50;;;;;;;3.93;3.17;;;;;;;;;;5031898;28;20454;-70
2023/07/07 02:04:16;;;;;;;2.73;2.50;;;;;;;;;;5029935;28;20456;-70
2023/07/07 02:06:41;;;;;;;3.77;3.00;;;;;;;;;;5031874;28;21022;-70
2023/07/07 02:09:07;;;;;;;2.73;2.63;;;;;;;;;;5032186;28;20434;-70
2023/07/07 02:11:34;;;;;;;2.70;2.60;;;;;;;;;;5032360;28;20485;-71
2023/07/07 02:14:00;;;;;;;2.70;2.50;;;;;;;;;;5031794;28;20828;-70
2023/07/07 02:16:26;;;;;;;4.60;3.00;;;;;;;;;;5030864;28;20539;-70
2023/07/07 02:18:52;;;;;;;3.10;2.90;;;;;;;;;;5031501;28;20572;-71
2023/07/07 02:21:19;;;;;;;3.23;3.13;;;;;;;;;;5031016;28;20530;-70
2023/07/07 02:23:45;;;;;;;2.87;2.70;;;;;;;;;;5032054;28;20443;-71
2023/07/07 02:26:13;;;;;;;2.87;2.77;;;;;;;;;;5046257;28;20474;-70
2023/07/07 02:28:39;;;;;;;3.20;3.10;;;;;;;;;;5032371;28;20491;-70
2023/07/07 02:31:05;;;;;;;3.20;2.83;;;;;;;;;;5030801;28;20991;-71
2023/07/07 02:33:32;;;;;;;6.57;3.07;;;;;;;;;;5031325;28;20435;-71
2023/07/07 02:36:02;;;;;;;2.50;2.40;;;;;;;;;;5031713;28;20447;-71
2023/07/07 02:38:29;;;;;;;6.73;3.40;;;;;;;;;;5031878;28;20438;-70
2023/07/07 02:40:55;;;;;;;2.50;2.50;;;;;;;;;;5030031;28;20491;-71
2023/07/07 02:43:21;;;;;;;5.03;3.03;;;;;;;;;;5031250;28;20439;-71
2023/07/07 02:45:47;;;;;;;4.63;3.03;;;;;;;;;;5030916;28;20443;-71
2023/07/07 02:48:14;;;;;;;3.67;3.37;;;;;;;;;;5031220;28;20477;-71
2023/07/07 02:50:40;;;;;;;2.87;2.77;;;;;;;;;;5031036;28;20943;-71
2023/07/07 02:53:06;;;;;;;4.13;3.43;;;;;;;;;;5043572;28;20450;-70
2023/07/07 02:55:32;;;;;;;2.97;2.90;;;;;;;;;;5032193;28;20447;-71
2023/07/07 02:57:58;;;;;;;3.10;2.90;;;;;;;;;;5030677;28;20458;-70
2023/07/07 03:00:24;;;;;;;3.80;3.70;;;;;;;;;;5045757;28;20577;-70
2023/07/07 03:02:50;;;;;;;2.40;2.30;;;;;;;;;;5029918;28;20523;-70
2023/07/07 03:05:16;;;;;;;3.60;3.50;;;;;;;;;;5030954;28;20442;-70
2023/07/07 03:07:43;;;;;;;3.83;3.57;;;;;;;;;;5031194;28;21018;-71
2023/07/07 03:10:09;;;;;;;3.13;3.03;;;;;;;;;;5030705;28;20947;-70
2023/07/07 03:12:36;;;;;;;3.50;3.20;;;;;;;;;;5029833;28;20435;-70
2023/07/07 03:15:04;;;;;;;2.70;2.57;;;;;;;;;;5045797;28;20913;-71
2023/07/07 03:17:31;;;;;;;3.27;3.07;;;;;;;;;;5031109;28;20422;-71
2023/07/07 03:19:57;;;;;;;3.00;2.80;;;;;;;;;;5030831;28;20463;-71
2023/07/07 03:22:23;;;;;;;3.40;3.20;;;;;;;;;;5030366;28;20820;-70
2023/07/07 03:24:52;;;;;;;4.00;3.80;;;;;;;;;;5045386;28;20946;-71
2023/07/07 03:27:18;;;;;;;3.40;3.20;;;;;;;;;;5030186;28;20439;-70
2023/07/07 03:29:44;;;;;;;5.10;3.47;;;;;;;;;;5030172;28;20969;-70
2023/07/07 03:32:10;;;;;;;3.87;3.67;;;;;;;;;;5030742;28;20467;-70
2023/07/07 03:34:36;;;;;;;4.60;4.30;;;;;;;;;;5029668;28;20431;-70
2023/07/07 03:37:03;;;;;;;3.77;3.57;;;;;;;;;;5030875;28;20465;-71
2023/07/07 03:39:29;;;;;;;7.47;3.53;;;;;;;;;;5030286;28;20443;-71
2023/07/07 03:41:55;;;;;;;4.53;4.17;;;;;;;;;;5030027;28;20450;-70
2023/07/07 03:44:22;;;;;;;5.87;3.63;;;;;;;;;;5029743;28;20447;-70
2023/07/07 03:46:48;;;;;;;4.07;3.77;;;;;;;;;;5029280;28;20458;-71
2023/07/07 03:49:14;;;;;;;3.70;3.30;;;;;;;;;;5029485;28;20963;-70
2023/07/07 03:51:40;;;;;;;4.40;4.07;;;;;;;;;;5029685;28;20449;-71
2023/07/07 03:54:06;;;;;;;4.33;3.63;;;;;;;;;;5028842;28;20439;-70
2023/07/07 03:56:32;;;;;;;3.33;3.07;;;;;;;;;;5030235;28;20519;-70
2023/07/07 03:58:58;;;;;;;5.53;3.60;;;;;;;;;;5029769;28;20462;-70
2023/07/07 04:01:24;;;;;;;4.60;4.20;;;;;;;;;;5029422;28;20540;-71
2023/07/07 04:03:50;;;;;;;6.47;3.77;;;;;;;;;;5029594;28;20835;-71
2023/07/07 04:06:17;;;;;;;3.37;3.17;;;;;;;;;;5030168;28;20772;-71
2023/07/07 04:08:43;;;;;;;4.63;3.90;;;;;;;;;;5029394;28;20448;-70
2023/07/07 04:11:10;;;;;;;4.07;3.77;;;;;;;;;;5044211;28;20431;-70
2023/07/07 04:13:38;;;;;;;4.63;4.23;;;;;;;;;;5044894;28;20470;-71
2023/07/07 04:16:06;;;;;;;3.83;3.47;;;;;;;;;;5029684;28;20426;-70
2023/07/07 04:18:32;;;;;;;3.50;3.23;;;;;;;;;;5029513;28;20451;-70
2023/07/07 04:21:09;;;;;;;5.40;2.87;;;;;;;;;;5028770;28;20629;-71
2023/07/07 04:23:36;;;;;;;4.17;3.43;;;;;;;;;;5029469;28;20417;-70
2023/07/07 04:26:02;;;;;;;3.33;3.20;;;;;;;;;;5029973;28;20798;-71
2023/07/07 04:28:31;;;;;;;3.70;3.50;;;;;;;;;;5029352;28;20443;-71
2023/07/07 04:30:58;;;;;;;3.80;3.60;;;;;;;;;;5028560;28;20482;-70
2023/07/07 04:33:24;;;;;;;3.93;3.63;;;;;;;;;;5028197;28;20477;-70
2023/07/07 04:35:51;;;;;;;4.10;2.83;;;;;;;;;;5043730;28;20496;-70
2023/07/07 04:38:19;;;;;;;3.23;3.13;;;;;;;;;;5029323;28;20447;-70
2023/07/07 04:40:45;;;;;;;2.90;2.80;;;;;;;;;;5044435;28;20483;-70
2023/07/07 04:43:11;;;;;;;4.00;3.90;;;;;;;;;;5028417;28;20427;-70
2023/07/07 04:45:36;;;;;;;3.90;3.70;;;;;;;;;;5029688;28;20423;-70
2023/07/07 04:48:03;;;;;;;11.33;3.50;;;;;;;;;;5028815;28;20434;-70
2023/07/07 04:50:32;;;;;;;3.30;3.10;;;;;;;;;;5028663;28;20509;-70
2023/07/07 04:52:58;;;;;;;4.20;4.00;;;;;;;;;;5028948;28;20450;-70
2023/07/07 04:55:24;;;;;;;3.53;3.23;;;;;;;;;;5028592;28;21078;-70
2023/07/07 04:57:49;;;;;;;3.30;3.10;;;;;;;;;;5029720;28;20435;-70
2023/07/07 05:00:16;;;;;;;11.73;3.03;;;;;;;;;;5043760;28;20489;-70
2023/07/07 05:02:41;;;;;;;3.90;3.50;;;;;;;;;;5028911;28;20795;-70
2023/07/07 05:05:08;;;;;;;6.30;3.33;;;;;;;;;;5033685;28;21148;-70
2023/07/07 05:07:33;;;;;;;3.53;3.40;;;;;;;;;;5051001;28;20431;-70
2023/07/07 05:09:59;;;;;;;3.70;3.50;;;;;;;;;;5035264;28;20453;-70
2023/07/07 05:12:25;;;;;;;3.20;3.00;;;;;;;;;;5036076;28;20435;-71
2023/07/07 05:14:52;;;;;;;3.40;3.20;;;;;;;;;;5035763;28;20430;-70
2023/07/07 05:17:18;;;;;;;4.13;3.83;;;;;;;;;;5035087;28;20431;-70
2023/07/07 05:19:44;;;;;;;4.37;3.97;;;;;;;;;;5035520;28;20895;-71
2023/07/07 05:22:10;;;;;;;11.40;4.40;;;;;;;;;;5033910;28;20934;-70
2023/07/07 05:24:36;;;;;;;3.87;3.73;;;;;;;;;;5035701;28;20926;-70
2023/07/07 05:27:02;;;;;;;5.37;3.83;;;;;;;;;;5035069;28;20715;-71
2023/07/07 05:29:28;;;;;;;4.30;4.03;;;;;;;;;;5036116;28;20434;-70
2023/07/07 05:31:54;;;;;;;3.13;3.03;;;;;;;;;;5036068;28;20470;-71
2023/07/07 05:34:20;;;;;;;4.83;4.53;;;;;;;;;;5034423;28;20427;-70
2023/07/07 05:36:46;;;;;;;6.50;3.73;;;;;;;;;;5036099;28;20933;-71
2023/07/07 05:39:12;;;;;;;4.20;3.63;;;;;;;;;;5035545;28;20480;-67
2023/07/07 05:41:38;;;;;;;3.60;3.30;;;;;;;;;;5035034;28;20490;-67
2023/07/07 05:44:04;;;;;;;3.70;3.20;;;;;;;;;;5035116;28;20941;-67
2023/07/07 05:46:30;;;;;;;2.87;2.67;;;;;;;;;;5035723;28;20788;-66
2023/07/07 05:48:56;;;;;;;3.20;2.90;;;;;;;;;;5034235;28;20489;-67
2023/07/07 05:51:22;;;;;;;4.47;3.90;;;;;;;;;;5036785;28;20533;-66
2023/07/07 05:53:48;;;;;;;4.40;4.10;;;;;;;;;;5035472;28;20797;-66
2023/07/07 05:56:17;;;;;;;3.50;3.40;;;;;;;;;;5035241;28;20438;-66
2023/07/07 05:58:43;;;;;;;6.53;3.83;;;;;;;;;;5034985;28;20437;-66
2023/07/07 06:01:10;;;;;;;16.43;3.17;;;;;;;;;;5035456;28;20844;-66
2023/07/07 06:03:37;;;;;;;5.07;3.77;;;;;;;;;;5034919;28;20439;-66
2023/07/07 06:06:03;;;;;;;4.20;3.90;;;;;;;;;;5034744;28;20518;-66
2023/07/07 06:08:29;;;;;;;4.50;4.17;;;;;;;;;;5034932;28;20430;-67
2023/07/07 06:10:55;;;;;;;5.50;3.50;;;;;;;;;;5036246;28;20442;-66
2023/07/07 06:13:24;;;;;;;10.03;3.53;;;;;;;;;;5034854;28;20437;-66
2023/07/07 06:15:50;;;;;;;3.60;3.07;;;;;;;;;;5032660;28;20431;-66
2023/07/07 06:18:17;;;;;;;3.53;3.27;;;;;;;;;;5034415;28;20553;-67
2023/07/07 06:20:47;;;;;;;4.10;3.70;;;;;;;;;;5032256;28;20479;-66
2023/07/07 06:23:13;;;;;;;2.67;2.47;;;;;;;;;;5031418;28;20431;-66
2023/07/07 06:25:39;;;;;;;9.40;3.27;;;;;;;;;;5032075;28;20435;-66
2023/07/07 06:28:05;;;;;;;8.60;3.40;;;;;;;;;;5032408;28;20434;-67
2023/07/07 06:30:30;;;;;;;3.63;3.30;;;;;;;;;;5032369;28;20492;-66
2023/07/07 06:32:58;;;;;;;5.77;3.70;;;;;;;;;;5031708;28;20453;-66
2023/07/07 06:35:25;;;;;;;3.07;2.87;;;;;;;;;;5032479;28;20519;-66
2023/07/07 06:37:51;;;;;;;4.33;2.77;;;;;;;;;;5032080;28;20439;-66
2023/07/07 06:40:17;;;;;;;2.63;2.53;;;;;;;;;;5015210;28;20857;-66
2023/07/07 06:42:42;;;;;;;3.83;3.37;;;;;;;;;;5031661;28;20431;-66
2023/07/07 06:45:09;;;;;;;5.53;3.37;;;;;;;;;;5015294;28;20462;-66
2023/07/07 06:47:35;;;;;;;3.00;2.90;;;;;;;;;;5031514;28;20918;-70
2023/07/07 06:50:01;;;;;;;2.97;2.77;;;;;;;;;;5030840;28;20532;-70
2023/07/07 06:52:27;;;;;;;2.47;2.27;;;;;;;;;;5031142;28;20439;-70
2023/07/07 06:54:54;;;;;;;2.67;2.57;;;;;;;;;;5031142;28;20432;-70
2023/07/07 06:57:21;;;;;;;2.90;2.80;;;;;;;;;;5028782;28;20467;-70
2023/07/07 06:59:46;;;;;;;3.07;2.97;;;;;;;;;;5031313;28;20524;-70
2023/07/07 07:02:13;;;;;;;3.13;2.93;;;;;;;;;;5031363;28;20518;-70
2023/07/07 07:04:42;;;;;;;3.30;2.83;;;;;;;;;;5029564;28;20454;-71
2023/07/07 07:07:09;;;;;;;4.03;3.83;;;;;;;;;;5030286;28;20925;-71
2023/07/07 07:09:35;;;;;;;3.30;3.00;;;;;;;;;;5030718;28;20453;-70
2023/07/07 07:12:01;;;;;;;3.20;3.00;;;;;;;;;;5031380;28;20408;-70
2023/07/07 07:14:27;;;;;;;4.20;2.80;;;;;;;;;;5031007;28;20434;-70
2023/07/07 07:16:53;;;;;;;3.37;3.17;;;;;;;;;;5030052;28;20431;-71
2023/07/07 07:19:19;;;;;;;3.23;3.03;;;;;;;;;;5045707;28;20441;-71
2023/07/07 07:21:45;;;;;;;3.70;3.50;;;;;;;;;;5031074;28;20552;-71
2023/07/07 07:24:11;;;;;;;5.67;3.23;;;;;;;;;;5030751;28;20435;-70
2023/07/07 07:26:37;;;;;;;8.07;7.57;;;;;;;;;;5030394;28;20973;-71
2023/07/07 07:29:03;;;;;;;3.87;3.63;;;;;;;;;;5030959;28;20825;-71
2023/07/07 07:31:29;;;;;;;7.43;3.30;;;;;;;;;;5030608;28;20492;-70
2023/07/07 07:33:55;;;;;;;3.03;2.80;;;;;;;;;;5029357;28;20451;-71
2023/07/07 07:36:22;;;;;;;5.60;3.23;;;;;;;;;;5030483;28;20848;-71
2023/07/07 07:38:48;;;;;;;3.47;3.13;;;;;;;;;;5031019;28;20867;-71
2023/07/07 07:41:14;;;;;;;3.93;3.73;;;;;;;;;;5031028;28;20510;-70
2023/07/07 07:43:40;;;;;;;3.70;3.40;;;;;;;;;;5029993;28;20427;-71
2023/07/07 07:46:06;;;;;;;3.17;3.07;;;;;;;;;;5029702;28;20450;-71
2023/07/07 07:48:32;;;;;;;3.77;3.47;;;;;;;;;;5029516;28;20467;-71
2023/07/07 07:50:59;;;;;;;3.20;3.10;;;;;;;;;;5029670;28;20852;-70
2023/07/07 07:53:25;;;;;;;4.00;2.70;;;;;;;;;;5029974;28;20423;-71
2023/07/07 07:55:51;;;;;;;4.30;2.97;;;;;;;;;;5030242;28;20492;-71
2023/07/07 07:58:16;;;;;;;3.77;3.40;;;;;;;;;;5030200;28;20427;-71
2023/07/07 08:00:43;;;;;;;3.30;3.17;;;;;;;;;;5030371;28;20908;-70
2023/07/07 08:03:09;;;;;;;3.70;3.50;;;;;;;;;;5029889;28;20443;-71
2023/07/07 08:05:34;;;;;;;3.33;2.97;;;;;;;;;;5029916;28;20945;-71
2023/07/07 08:08:00;;;;;;;4.10;3.80;;;;;;;;;;5029661;28;20486;-70
2023/07/07 08:10:26;;;;;;;11.77;6.47;;;;;;;;;;5029278;28;20439;-71
2023/07/07 08:12:52;;;;;;;3.67;3.47;;;;;;;;;;5029525;28;21230;-71
2023/07/07 08:15:18;;;;;;;7.93;3.33;;;;;;;;;;5028118;28;20501;-71
2023/07/07 08:17:44;;;;;;;6.50;3.50;;;;;;;;;;5029072;28;20435;-71
2023/07/07 08:20:15;;;;;;;5.57;3.30;;;;;;;;;;5028921;28;20524;-70
2023/07/07 08:22:41;;;;;;;4.40;4.10;;;;;;;;;;5044996;28;20488;-71
2023/07/07 08:25:07;;;;;;;4.00;3.80;;;;;;;;;;5045192;28;20828;-71
2023/07/07 08:27:33;;;;;;;3.97;3.77;;;;;;;;;;5029729;28;20440;-71
2023/07/07 08:29:59;;;;;;;3.17;3.07;;;;;;;;;;5045630;28;20493;-71
2023/07/07 08:32:25;;;;;;;5.93;3.50;;;;;;;;;;5030249;28;20444;-71
2023/07/07 08:34:52;;;;;;;5.50;3.30;;;;;;;;;;5028602;28;20933;-71
2023/07/07 08:37:20;;;;;;;3.50;3.30;;;;;;;;;;5028593;28;20435;-71
2023/07/07 08:39:46;;;;;;;3.77;3.30;;;;;;;;;;5028266;28;20478;-70
2023/07/07 08:42:22;;;;;;;3.87;3.57;;;;;;;;;;5029760;28;20432;-70
2023/07/07 08:44:48;;;;;;;2.77;2.67;;;;;;;;;;5029097;28;20454;-70
2023/07/07 08:47:43;;;;;;;4.03;3.73;;;;;;;;;;5029505;28;20522;-71
2023/07/07 08:50:26;;;;;;;2.90;2.80;;;;;;;;;;5031021;28;20569;-71
2023/07/07 08:53:11;;;;;;;6.60;6.00;;;;;;;;;;5029283;28;20450;-70
2023/07/07 08:55:45;;;;;;;3.50;3.20;;;;;;;;;;5028289;28;20427;-71
2023/07/07 08:58:15;;;;;;;8.40;3.80;;;;;;;;;;5029735;28;21013;-71
2023/07/07 09:01:00;;;;;;;6.20;3.90;;;;;;;;;;5028871;28;20970;-70
2023/07/07 09:03:38;;;;;;;3.13;2.93;;;;;;;;;;5028376;28;20538;-71
2023/07/07 09:06:04;;;;;;;4.20;3.07;;;;;;;;;;5029321;28;20465;-71
2023/07/07 09:08:46;;;;;;;6.17;3.57;;;;;;;;;;5029766;28;21047;-71
2023/07/07 09:11:15;;;;;;;4.40;3.40;;;;;;;;;;5028960;28;20487;-71
2023/07/07 09:13:42;;;;;;;6.80;3.70;;;;;;;;;;5029268;28;20989;-71
2023/07/07 09:16:29;;;;;;;3.40;3.13;;;;;;;;;;5029328;28;20939;-71
2023/07/07 09:19:15;;;;;;;3.90;3.70;;;;;;;;;;5028414;28;20439;-70
2023/07/07 09:21:41;;;;;;;3.30;3.20;;;;;;;;;;5028796;28;21887;-75
2023/07/07 09:24:11;;;;;;;3.70;3.40;;;;;;;;;;5029168;28;20852;-71
2023/07/07 09:26:38;;;;;;;3.40;3.30;;;;;;;;;;5027756;28;20427;-71
2023/07/07 09:29:07;;;;;;;3.73;3.53;;;;;;;;;;5028426;28;20439;-70
2023/07/07 09:31:38;;;;;;;3.23;3.10;;;;;;;;;;5028673;28;20914;-70
2023/07/07 09:34:04;;;;;;;3.80;3.30;;;;;;;;;;5028793;28;20916;-71
2023/07/07 09:36:33;;;;;;;4.13;3.77;;;;;;;;;;5029395;28;20934;-71
2023/07/07 09:39:13;;;;;;;6.43;3.80;;;;;;;;;;5027659;28;20989;-70
2023/07/07 09:41:48;;;;;;;4.27;3.50;;;;;;;;;;5027837;28;20531;-70
2023/07/07 09:44:14;;;;;;;4.57;3.43;;;;;;;;;;5028548;28;20446;-70
2023/07/07 09:46:39;;;;;;;4.50;4.00;;;;;;;;;;5027849;28;20590;-71
2023/07/07 09:49:26;;;;;;;4.83;3.40;;;;;;;;;;5028116;28;20236;-70
2023/07/07 09:52:11;;;;;;;3.23;3.03;;;;;;;;;;5031594;28;20195;-71
2023/07/07 09:54:37;;;;;;;12.20;4.30;;;;;;;;;;5031780;28;20434;-71
2023/07/07 09:57:22;;;;;;;9.60;4.67;;;;;;;;;;5031964;28;20454;-71
2023/07/07 09:59:49;;;;;;;5.60;3.77;;;;;;;;;;5032460;28;20500;-71
2023/07/07 10:02:17;;;;;;;4.30;3.93;;;;;;;;;;5031661;28;20435;-70
2023/07/07 10:04:44;;;;;;;5.70;4.10;;;;;;;;;;5031667;28;20820;-70
2023/07/07 10:07:11;;;;;;;3.87;3.47;;;;;;;;;;5030864;28;20593;-70
2023/07/07 10:09:37;;;;;;;4.30;4.00;;;;;;;;;;5032418;28;20435;-70
2023/07/07 10:12:03;;;;;;;8.03;4.63;;;;;;;;;;5032728;28;20427;-70
2023/07/07 10:14:31;;;;;;;4.23;3.90;;;;;;;;;;5032151;28;20438;-71
2023/07/07 10:17:09;;;;;;;8.03;4.37;;;;;;;;;;5032131;28;20447;-70
2023/07/07 10:19:42;;;;;;;9.17;4.70;;;;;;;;;;5031694;28;20427;-71
2023/07/07 10:22:11;;;;;;;3.80;3.60;;;;;;;;;;5031548;28;20443;-71
2023/07/07 10:24:37;;;;;;;4.67;4.27;;;;;;;;;;5030412;28;20424;-71
2023/07/07 10:27:03;;;;;;;4.43;4.13;;;;;;;;;;5032139;28;20433;-71
2023/07/07 10:29:33;;;;;;;3.37;3.27;;;;;;;;;;5032249;28;20419;-72
2023/07/07 10:31:59;;;;;;;3.33;3.00;;;;;;;;;;5031974;28;20431;-71
2023/07/07 10:34:28;;;;;;;13.43;11.80;;;;;;;;;;5030853;28;20443;-71
2023/07/07 10:36:55;;;;;;;4.97;4.63;;;;;;;;;;5029333;28;20447;-71
2023/07/07 10:39:26;;;;;;;5.33;4.30;;;;;;;;;;5030085;28;20439;-71
2023/07/07 10:41:52;;;;;;;8.43;4.90;;;;;;;;;;5029643;28;20483;-74
2023/07/07 10:44:18;;;;;;;10.27;4.50;;;;;;;;;;5028017;28;20425;-70
2023/07/07 10:46:44;;;;;;;6.07;3.70;;;;;;;;;;5030543;28;20621;-71
2023/07/07 10:49:14;;;;;;;4.77;4.37;;;;;;;;;;5028738;28;20578;-71
2023/07/07 10:51:44;;;;;;;5.13;4.83;;;;;;;;;;5029997;28;20538;-70
2023/07/07 10:54:10;;;;;;;4.37;4.10;;;;;;;;;;5029229;28;20439;-70
2023/07/07 10:56:40;;;;;;;4.10;3.70;;;;;;;;;;5030426;28;20443;-71
2023/07/07 10:59:25;;;;;;;8.00;4.03;;;;;;;;;;5030203;28;20436;-70
2023/07/07 11:02:00;;;;;;;7.63;4.17;;;;;;;;;;5028833;28;20490;-70
2023/07/07 11:04:29;;;;;;;9.30;3.93;;;;;;;;;;5028090;28;20439;-70
2023/07/07 11:07:23;;;;;;;5.37;4.60;;;;;;;;;;5029941;28;20916;-70
2023/07/07 11:09:48;;;;;;;4.80;3.80;;;;;;;;;;5030028;28;20435;-70
2023/07/07 11:12:28;;;;;;;4.57;4.17;;;;;;;;;;5029746;28;20465;-70
2023/07/07 11:15:13;;;;;;;4.20;4.00;;;;;;;;;;5029892;28;20545;-70
2023/07/07 11:17:45;;;;;;;5.67;3.83;;;;;;;;;;5045256;28;20527;-70
2023/07/07 11:20:20;;;;;;;4.70;4.20;;;;;;;;;;5031360;28;20502;-70
2023/07/07 11:22:52;;;;;;;7.10;4.60;;;;;;;;;;5030346;28;20444;-70
2023/07/07 11:25:34;;;;;;;4.10;3.80;;;;;;;;;;5030234;28;20443;-70
2023/07/07 11:28:00;;;;;;;3.90;3.80;;;;;;;;;;5030336;28;20942;-70
2023/07/07 11:30:29;;;;;;;4.13;3.93;;;;;;;;;;5030459;28;20427;-70
2023/07/07 11:32:58;;;;;;;4.03;3.93;;;;;;;;;;5028411;28;20562;-70
2023/07/07 11:35:38;;;;;;;4.33;4.00;;;;;;;;;;5030364;28;20431;-71
2023/07/07 11:38:12;;;;;;;4.13;3.77;;;;;;;;;;5030691;28;20433;-70
2023/07/07 11:40:57;;;;;;;4.87;4.43;;;;;;;;;;5030365;28;20970;-70
2023/07/07 11:43:26;;;;;;;5.60;4.30;;;;;;;;;;5029881;28;20470;-70
2023/07/07 11:45:52;;;;;;;6.90;3.97;;;;;;;;;;5030086;28;20427;-71
2023/07/07 11:48:37;;;;;;;4.97;4.40;;;;;;;;;;5028702;28;20478;-70
2023/07/07 11:51:12;;;;;;;5.73;5.33;;;;;;;;;;5029255;28;20565;-70
2023/07/07 11:53:50;;;;;;;3.33;3.13;;;;;;;;;;5044864;28;20449;-70
2023/07/07 11:56:16;;;;;;;4.50;4.13;;;;;;;;;;5030458;28;20576;-70
2023/07/07 11:58:48;;;;;;;3.50;3.30;;;;;;;;;;5030669;28;20875;-70
2023/07/07 12:01:16;;;;;;;7.20;5.27;;;;;;;;;;5030241;28;20485;-70
2023/07/07 12:04:00;;;;;;;3.77;3.57;;;;;;;;;;5029836;28;20438;-70
2023/07/07 12:06:46;;;;;;;4.43;3.93;;;;;;;;;;5030022;28;20455;-70
2023/07/07 12:09:26;;;;;;;4.23;3.80;;;;;;;;;;5030146;28;20492;-70
2023/07/07 12:12:03;;;;;;;5.13;3.80;;;;;;;;;;5030342;28;20831;-70
2023/07/07 12:14:48;;;;;;;12.20;4.50;;;;;;;;;;5029113;28;20913;-70
2023/07/07 12:17:17;;;;;;;4.80;3.80;;;;;;;;;;5029680;28;20454;-70
2023/07/07 12:19:47;;;;;;;10.90;3.93;;;;;;;;;;5029519;28;20423;-70
2023/07/07 12:22:15;;;;;;;3.40;3.20;;;;;;;;;;5029872;28;20458;-70
2023/07/07 12:24:45;;;;;;;6.33;3.97;;;;;;;;;;5029743;28;20519;-70
2023/07/07 12:27:13;;;;;;;3.73;3.53;;;;;;;;;;5029813;28;20442;-70
2023/07/07 12:29:41;;;;;;;6.03;3.47;;;;;;;;;;5029805;28;20946;-70
2023/07/07 12:32:07;;;;;;;3.70;3.50;;;;;;;;;;5030179;28;20419;-70
2023/07/07 12:34:56;;;;;;;4.13;3.83;;;;;;;;;;5029293;28;20473;-70
2023/07/07 12:37:22;;;;;;;3.57;3.47;;;;;;;;;;5028721;28;20427;-70
2023/07/07 12:39:54;;;;;;;4.30;4.00;;;;;;;;;;5029820;28;20434;-70
2023/07/07 12:42:21;;;;;;;3.80;3.57;;;;;;;;;;5030047;28;20427;-70
2023/07/07 12:44:47;;;;;;;12.07;3.90;;;;;;;;;;5044329;28;20816;-70
2023/07/07 12:47:28;;;;;;;12.17;3.97;;;;;;;;;;5043834;28;20445;-70
2023/07/07 12:49:56;;;;;;;6.83;3.10;;;;;;;;;;5043740;28;20481;-70
2023/07/07 12:52:22;;;;;;;5.33;3.90;;;;;;;;;;5029868;28;20431;-70
2023/07/07 12:54:52;;;;;;;4.57;3.93;;;;;;;;;;5028546;28;20442;-70
2023/07/07 12:57:18;;;;;;;15.57;4.80;;;;;;;;;;5029390;28;20423;-70
2023/07/07 12:59:44;;;;;;;3.57;3.47;;;;;;;;;;5028048;28;20492;-70
2023/07/07 13:02:20;;;;;;;10.10;3.73;;;;;;;;;;5028801;28;20454;-70
2023/07/07 13:04:51;;;;;;;3.50;3.20;;;;;;;;;;5027946;28;20450;-70
2023/07/07 13:07:27;;;;;;;5.90;3.63;;;;;;;;;;5044852;28;20475;-69
2023/07/07 13:09:53;;;;;;;11.93;4.47;;;;;;;;;;5029148;28;20438;-70
2023/07/07 13:12:37;;;;;;;5.47;3.67;;;;;;;;;;5029406;28;20424;-70
2023/07/07 13:15:24;;;;;;;9.50;2.90;;;;;;;;;;5043728;28;20440;-70
2023/07/07 13:17:51;;;;;;;3.93;3.47;;;;;;;;;;5028923;28;20438;-70
2023/07/07 13:20:18;;;;;;;4.20;3.80;;;;;;;;;;5027858;28;20501;-70
2023/07/07 13:22:47;;;;;;;3.67;3.40;;;;;;;;;;5027600;28;20525;-70
2023/07/07 13:25:25;;;;;;;3.50;3.20;;;;;;;;;;5044010;28;20938;-70
2023/07/07 13:27:52;;;;;;;3.50;3.20;;;;;;;;;;5032255;28;20456;-70
2023/07/07 13:30:27;;;;;;;6.10;3.90;;;;;;;;;;5033118;28;20554;-70
2023/07/07 13:32:54;;;;;;;3.30;2.83;;;;;;;;;;5030118;28;20445;-70
2023/07/07 13:35:21;;;;;;;5.70;3.47;;;;;;;;;;5028379;28;20450;-70
2023/07/07 13:37:47;;;;;;;3.20;3.00;;;;;;;;;;5032342;28;20958;-70
2023/07/07 13:40:15;;;;;;;3.77;3.47;;;;;;;;;;5030589;28;20561;-70
2023/07/07 13:42:43;;;;;;;3.40;3.20;;;;;;;;;;5030827;28;20462;-70
2023/07/07 13:45:12;;;;;;;6.20;4.00;;;;;;;;;;5046255;28;20481;-70
2023/07/07 13:47:43;;;;;;;5.40;4.90;;;;;;;;;;5032690;28;20488;-70
2023/07/07 13:50:13;;;;;;;6.17;3.40;;;;;;;;;;5032939;28;20463;-70
2023/07/07 13:52:42;;;;;;;2.30;2.20;;;;;;;;;;5046648;28;20542;-70
2023/07/07 13:55:11;;;;;;;7.17;3.53;;;;;;;;;;5033355;28;20434;-70
2023/07/07 13:57:38;;;;;;;4.90;4.30;;;;;;;;;;5033119;28;20886;-70
2023/07/07 14:00:05;;;;;;;4.13;3.40;;;;;;;;;;5032840;28;20475;-70
2023/07/07 14:02:31;;;;;;;4.47;3.27;;;;;;;;;;5047888;28;20434;-70
2023/07/07 14:05:03;;;;;;;4.70;2.87;;;;;;;;;;5032748;28;20458;-70
2023/07/07 14:07:29;;;;;;;4.40;3.00;;;;;;;;;;5032589;28;20449;-70
2023/07/07 14:09:56;;;;;;;3.10;2.90;;;;;;;;;;5032455;28;20431;-70
2023/07/07 14:12:26;;;;;;;3.20;3.10;;;;;;;;;;5032873;28;20411;-70
2023/07/07 14:14:54;;;;;;;7.20;3.13;;;;;;;;;;5032514;28;20422;-70
2023/07/07 14:17:20;;;;;;;3.00;2.70;;;;;;;;;;5032359;28;20411;-70
2023/07/07 14:20:16;;;;;;;8.30;3.83;;;;;;;;;;5032441;28;20501;-70
2023/07/07 14:22:42;;;;;;;3.53;3.30;;;;;;;;;;5026446;28;20275;-70
2023/07/07 14:25:13;;;;;;;4.00;3.60;;;;;;;;;;5032592;28;20431;-70
2023/07/07 14:27:39;;;;;;;3.60;3.40;;;;;;;;;;5032631;28;20525;-70
2023/07/07 14:30:05;;;;;;;8.00;3.50;;;;;;;;;;5032369;28;20419;-70
2023/07/07 14:32:37;;;;;;;4.67;3.20;;;;;;;;;;5031529;28;20443;-70
2023/07/07 14:35:09;;;;;;;4.57;4.27;;;;;;;;;;5032132;28;20493;-70
2023/07/07 14:37:39;;;;;;;3.50;3.30;;;;;;;;;;5031658;28;20822;-70
2023/07/07 14:40:23;;;;;;;7.17;3.53;;;;;;;;;;5032086;28;20970;-70
2023/07/07 14:42:50;;;;;;;8.03;3.53;;;;;;;;;;5031998;28;20459;-70
2023/07/07 14:45:27;;;;;;;3.33;3.13;;;;;;;;;;5032484;28;20415;-70
2023/07/07 14:47:54;;;;;;;3.30;3.10;;;;;;;;;;5031288;28;20473;-70
2023/07/07 14:50:20;;;;;;;8.00;2.70;;;;;;;;;;5012216;28;20432;-70
2023/07/07 14:52:47;;;;;;;2.97;2.77;;;;;;;;;;5012046;28;20433;-70